createdAt,value
2022-09-16T00:02:13.303Z,70.40
2022-09-16T00:06:22.384Z,70.92
2022-09-16T00:10:26.010Z,70.50
2022-09-16T00:14:29.143Z,70.01
2022-09-16T00:18:34.578Z,70.13
2022-09-16T00:22:38.315Z,70.05
2022-09-16T00:26:41.427Z,69.92
2022-09-16T00:30:44.995Z,70.41
2022-09-16T00:34:49.817Z,70.05
2022-09-16T00:38:55.102Z,69.93
2022-09-16T00:43:00.761Z,69.87
2022-09-16T00:47:04.488Z,70.10
2022-09-16T00:51:13.093Z,70.20
2022-09-16T00:55:21.994Z,70.47
2022-09-16T00:59:28.655Z,70.61
2022-09-16T01:03:33.027Z,70.51
2022-09-16T01:07:42.374Z,70.39
2022-09-16T01:11:46.831Z,70.51
2022-09-16T01:16:00.620Z,70.63
2022-09-16T01:20:33.100Z,70.87
2022-09-16T01:24:50.940Z,70.81
2022-09-16T01:29:22.877Z,70.99
2022-09-16T01:33:41.329Z,71.24
2022-09-16T01:37:55.686Z,71.19
2022-09-16T01:42:16.548Z,71.40
2022-09-16T01:46:26.184Z,71.50
2022-09-16T01:50:35.274Z,71.49
2022-09-16T01:54:44.268Z,71.60
2022-09-16T01:58:53.370Z,71.62
2022-09-16T02:03:02.031Z,71.66
2022-09-16T02:07:09.610Z,71.89
2022-09-16T02:11:16.335Z,71.90
2022-09-16T02:15:24.197Z,71.99
2022-09-16T02:19:31.007Z,72.08
2022-09-16T02:23:41.271Z,72.43
2022-09-16T02:27:47.066Z,72.52
2022-09-16T02:31:55.725Z,72.52
2022-09-16T02:36:00.978Z,72.66
2022-09-16T02:40:14.819Z,72.66
2022-09-16T02:44:17.887Z,72.66
2022-09-16T02:48:30.258Z,72.13
2022-09-16T02:52:39.683Z,72.37
2022-09-16T02:56:44.755Z,72.43
2022-09-16T03:00:51.784Z,72.29
2022-09-16T03:04:55.364Z,72.64
2022-09-16T03:09:02.660Z,72.59
2022-09-16T03:13:13.874Z,72.93
2022-09-16T03:17:32.694Z,73.36
2022-09-16T03:21:44.924Z,73.37
2022-09-16T03:25:57.651Z,73.45
2022-09-16T03:30:07.238Z,74.24
2022-09-16T03:34:16.575Z,74.38
2022-09-16T03:38:21.544Z,74.75
2022-09-16T03:42:25.338Z,74.62
2022-09-16T03:46:30.334Z,74.81
2022-09-16T03:50:33.917Z,74.79
2022-09-16T03:54:38.095Z,75.21
2022-09-16T03:58:41.137Z,74.79
2022-09-16T04:02:46.024Z,74.60
2022-09-16T04:06:49.121Z,74.51
2022-09-16T04:10:56.296Z,73.87
2022-09-16T04:15:01.006Z,73.67
2022-09-16T04:19:05.618Z,73.36
2022-09-16T04:23:09.274Z,73.72
2022-09-16T04:27:12.709Z,73.57
2022-09-16T04:31:17.135Z,73.92
2022-09-16T04:35:22.107Z,73.85
2022-09-16T04:39:25.512Z,74.02
2022-09-16T04:43:28.793Z,73.90
2022-09-16T04:47:32.067Z,74.20
2022-09-16T04:51:37.176Z,74.46
2022-09-16T04:55:40.243Z,74.75
2022-09-16T04:59:43.817Z,74.58
2022-09-16T05:03:49.074Z,74.28
2022-09-16T05:07:53.819Z,74.59
2022-09-16T05:11:57.346Z,74.43
2022-09-16T05:16:04.414Z,74.19
2022-09-16T05:20:08.378Z,73.93
2022-09-16T05:24:15.633Z,73.63
2022-09-16T05:28:18.959Z,73.78
2022-09-16T05:32:22.109Z,74.06
2022-09-16T05:36:26.798Z,73.77
2022-09-16T05:40:31.550Z,73.88
2022-09-16T05:44:35.162Z,73.54
2022-09-16T05:48:38.777Z,73.25
2022-09-16T05:52:41.942Z,73.24
2022-09-16T05:56:47.323Z,73.02
2022-09-16T06:00:51.339Z,72.90
2022-09-16T06:09:08.249Z,72.09
2022-09-16T06:13:13.225Z,71.72
2022-09-16T06:17:16.359Z,71.62
2022-09-16T06:21:19.955Z,70.91
2022-09-16T06:25:23.691Z,70.75
2022-09-16T06:29:28.330Z,71.26
2022-09-16T06:33:31.824Z,70.03
2022-09-16T06:37:35.278Z,70.91
2022-09-16T06:41:38.324Z,70.41
2022-09-16T06:45:44.188Z,70.14
2022-09-16T06:49:47.646Z,69.59
2022-09-16T06:53:52.330Z,68.20
2022-09-16T06:57:57.965Z,68.80
2022-09-16T07:02:03.419Z,68.47
2022-09-16T07:06:07.571Z,67.43
2022-09-16T07:10:11.361Z,66.68
2022-09-16T07:14:14.449Z,65.44
2022-09-16T07:18:19.291Z,65.52
2022-09-16T07:22:22.467Z,65.84
2022-09-16T07:26:27.460Z,64.37
2022-09-16T07:30:31.750Z,62.84
2022-09-16T07:34:37.170Z,63.15
2022-09-16T07:38:40.505Z,63.46
2022-09-16T07:42:44.123Z,63.22
2022-09-16T07:46:48.669Z,63.77
2022-09-16T07:50:58.245Z,65.13
2022-09-16T07:55:01.742Z,64.99
2022-09-16T07:59:07.330Z,66.19
2022-09-16T08:03:10.908Z,66.29
2022-09-16T08:07:15.884Z,66.26
2022-09-16T08:11:19.025Z,65.56
2022-09-16T08:15:22.779Z,66.21
2022-09-16T08:19:26.256Z,65.88
2022-09-16T08:23:31.744Z,65.84
2022-09-16T08:27:36.945Z,65.27
2022-09-16T08:31:40.487Z,65.53
2022-09-16T08:35:43.969Z,64.22
2022-09-16T08:39:51.056Z,65.92
2022-09-16T08:44:04.366Z,65.87
2022-09-16T08:48:27.920Z,66.56
2022-09-16T08:52:34.442Z,66.38
2022-09-16T08:56:44.229Z,66.35
2022-09-16T09:00:56.795Z,67.23
2022-09-16T09:05:00.482Z,65.85
2022-09-16T09:09:15.594Z,66.07
2022-09-16T09:13:49.648Z,66.85
2022-09-16T09:18:04.932Z,64.03
2022-09-16T09:22:21.556Z,65.59
2022-09-16T09:26:34.548Z,65.02
2022-09-16T09:30:44.050Z,61.74
2022-09-16T09:35:03.336Z,63.45
2022-09-16T09:39:29.642Z,64.39
2022-09-16T09:43:37.411Z,63.02
2022-09-16T09:47:49.123Z,63.13
2022-09-16T09:51:58.471Z,62.97
2022-09-16T09:56:10.369Z,62.95
2022-09-16T10:00:18.396Z,63.79
2022-09-16T10:04:23.393Z,64.39
2022-09-16T10:08:31.556Z,64.67
2022-09-16T10:12:37.442Z,64.69
2022-09-16T10:16:50.507Z,66.08
2022-09-16T10:21:03.721Z,66.42
2022-09-16T10:25:23.684Z,66.60
2022-09-16T10:29:26.777Z,67.42
2022-09-16T10:33:32.259Z,68.66
2022-09-16T10:37:38.998Z,67.58
2022-09-16T10:41:46.653Z,65.92
2022-09-16T10:45:54.296Z,66.00
2022-09-16T10:50:02.065Z,65.74
2022-09-16T10:54:08.060Z,65.62
2022-09-16T10:58:17.328Z,66.54
2022-09-16T11:02:35.248Z,66.90
2022-09-16T11:06:50.737Z,67.28
2022-09-16T11:11:01.341Z,67.97
2022-09-16T11:15:20.646Z,68.68
2022-09-16T11:19:31.298Z,70.08
2022-09-16T11:23:52.078Z,72.33
2022-09-16T11:28:11.241Z,72.16
2022-09-16T11:32:22.816Z,71.38
2022-09-16T11:36:41.195Z,70.88
2022-09-16T11:40:49.846Z,69.85
2022-09-16T11:45:04.547Z,69.02
2022-09-16T11:49:29.713Z,69.45
2022-09-16T11:53:55.366Z,69.04
2022-09-16T11:58:03.346Z,67.80
2022-09-16T12:02:21.247Z,68.09
2022-09-16T12:06:28.553Z,66.24
2022-09-16T12:10:39.532Z,65.22
2022-09-16T12:14:47.191Z,64.75
2022-09-16T12:18:54.331Z,63.85
2022-09-16T12:23:06.025Z,63.46
2022-09-16T12:27:17.941Z,61.84
2022-09-16T12:31:25.335Z,60.76
2022-09-16T12:35:36.108Z,59.98
2022-09-16T12:39:39.854Z,58.14
2022-09-16T12:44:23.395Z,60.18
2022-09-16T12:48:52.407Z,59.69
2022-09-16T12:53:34.144Z,61.18
2022-09-16T12:57:53.408Z,60.79
2022-09-16T13:02:01.234Z,60.79
2022-09-16T13:06:09.069Z,60.25
2022-09-16T13:10:26.397Z,60.02
2022-09-16T13:14:48.820Z,60.09
2022-09-16T13:18:52.537Z,57.15
2022-09-16T13:23:07.615Z,60.14
2022-09-16T13:27:27.440Z,59.35
2022-09-16T13:31:34.327Z,57.61
2022-09-16T13:35:43.031Z,59.48
2022-09-16T13:39:50.203Z,59.80
2022-09-16T13:43:55.169Z,59.08
2022-09-16T13:47:59.236Z,57.35
2022-09-16T13:52:13.202Z,59.81
2022-09-16T13:56:44.608Z,59.64
2022-09-16T14:01:11.631Z,60.41
2022-09-16T14:05:44.995Z,60.82
2022-09-16T14:10:00.154Z,60.68
2022-09-16T14:14:07.000Z,60.79
2022-09-16T14:18:16.086Z,61.88
2022-09-16T14:22:21.950Z,61.92
2022-09-16T14:26:25.885Z,62.63
2022-09-16T14:30:29.114Z,60.10
2022-09-16T14:34:37.592Z,60.09
2022-09-16T14:38:46.868Z,60.70
2022-09-16T14:42:52.734Z,58.66
2022-09-16T14:47:07.646Z,58.68
2022-09-16T14:51:22.199Z,60.37
2022-09-16T14:55:27.930Z,61.03
2022-09-16T14:59:34.117Z,61.87
2022-09-16T15:03:44.108Z,62.40
2022-09-16T15:08:12.268Z,62.93
2022-09-16T15:12:23.479Z,64.39
2022-09-16T15:16:27.660Z,65.28
2022-09-16T15:20:34.361Z,66.03
2022-09-16T15:24:42.304Z,66.43
2022-09-16T15:28:58.092Z,66.66
2022-09-16T15:33:02.069Z,66.81
2022-09-16T15:37:05.177Z,66.36
2022-09-16T15:41:14.098Z,65.59
2022-09-16T15:45:21.749Z,64.76
2022-09-16T15:49:28.066Z,63.92
2022-09-16T15:53:43.774Z,64.76
2022-09-16T15:57:48.431Z,65.15
2022-09-16T16:01:55.868Z,66.01
2022-09-16T16:05:59.170Z,65.41
2022-09-16T16:10:15.625Z,65.95
2022-09-16T16:14:20.318Z,65.94
2022-09-16T16:18:23.975Z,66.59
2022-09-16T16:22:27.705Z,66.63
2022-09-16T16:26:34.252Z,66.55
2022-09-16T16:30:40.631Z,65.99
2022-09-16T16:34:46.818Z,66.61
2022-09-16T16:38:53.334Z,66.86
2022-09-16T16:42:57.120Z,66.98
2022-09-16T16:47:05.212Z,66.96
2022-09-16T16:51:15.798Z,66.78
2022-09-16T16:55:19.211Z,67.18
2022-09-16T16:59:22.930Z,66.84
2022-09-16T17:03:28.060Z,66.77
2022-09-16T17:07:31.718Z,66.58
2022-09-16T17:11:35.840Z,66.81
2022-09-16T17:15:39.322Z,67.45
2022-09-16T17:19:43.710Z,67.01
2022-09-16T17:23:47.451Z,67.62
2022-09-16T17:27:50.999Z,67.26
2022-09-16T17:31:57.211Z,67.18
2022-09-16T17:36:14.739Z,66.88
2022-09-16T17:40:18.672Z,66.83
2022-09-16T17:44:21.685Z,67.00
2022-09-16T17:48:25.892Z,66.90
2022-09-16T17:52:31.003Z,67.53
2022-09-16T17:56:34.152Z,67.25
2022-09-16T18:00:38.892Z,68.17
2022-09-16T18:04:43.432Z,68.54
2022-09-16T18:08:48.608Z,68.11
2022-09-16T18:12:52.196Z,68.31
2022-09-16T18:16:55.674Z,68.55
2022-09-16T18:21:00.446Z,68.38
2022-09-16T18:25:06.483Z,68.51
2022-09-16T18:29:11.958Z,68.79
2022-09-16T18:33:15.787Z,68.43
2022-09-16T18:37:19.939Z,68.13
2022-09-16T18:41:27.202Z,68.66
2022-09-16T18:45:32.149Z,68.31
2022-09-16T18:49:35.759Z,68.79
2022-09-16T18:53:38.893Z,69.00
2022-09-16T18:57:44.281Z,68.77
2022-09-16T19:01:49.832Z,68.76
2022-09-16T19:05:59.051Z,69.25
2022-09-16T19:10:02.795Z,69.44
2022-09-16T19:14:10.085Z,69.49
2022-09-16T19:18:13.937Z,69.36
2022-09-16T19:22:17.391Z,69.35
2022-09-16T19:26:21.603Z,69.49
2022-09-16T19:30:27.104Z,69.28
2022-09-16T19:34:30.655Z,69.52
2022-09-16T19:38:34.120Z,70.16
2022-09-16T19:42:37.369Z,71.25
2022-09-16T19:46:45.545Z,71.21
2022-09-16T19:50:53.518Z,72.05
2022-09-16T19:54:57.253Z,71.99
2022-09-16T19:59:01.641Z,72.01
2022-09-16T20:03:07.036Z,71.72
2022-09-16T20:07:17.542Z,71.97
2022-09-16T20:11:23.003Z,72.19
2022-09-16T20:15:27.219Z,72.12
2022-09-16T20:19:32.469Z,71.95
2022-09-16T20:23:36.605Z,71.87
2022-09-16T20:27:39.858Z,72.29
2022-09-16T20:31:43.620Z,71.88
2022-09-16T20:35:48.762Z,71.94
2022-09-16T20:39:54.495Z,71.29
2022-09-16T20:43:58.729Z,71.31
2022-09-16T20:48:04.280Z,70.94
2022-09-16T20:52:09.354Z,71.14
2022-09-16T20:56:16.291Z,71.18
2022-09-16T21:00:19.734Z,71.33
2022-09-16T21:04:23.645Z,71.56
2022-09-16T21:08:33.207Z,71.59
2022-09-16T21:12:37.560Z,71.35
2022-09-16T21:16:42.770Z,71.30
2022-09-16T21:20:45.970Z,71.25
2022-09-16T21:24:51.072Z,71.22
2022-09-16T21:28:57.197Z,71.23
2022-09-16T21:33:01.000Z,70.93
2022-09-16T21:37:05.636Z,70.45
2022-09-16T21:41:13.756Z,70.33
2022-09-16T21:45:18.536Z,69.62
2022-09-16T21:49:25.379Z,69.82
2022-09-16T21:53:29.095Z,69.77
2022-09-16T21:57:34.074Z,69.97
2022-09-16T22:01:38.526Z,69.73
2022-09-16T22:05:41.846Z,69.81
2022-09-16T22:09:45.410Z,69.67
2022-09-16T22:13:51.233Z,69.47
2022-09-16T22:17:55.237Z,69.98
2022-09-16T22:21:58.226Z,70.11
2022-09-16T22:26:04.834Z,70.05
2022-09-16T22:30:11.934Z,70.22
2022-09-16T22:34:15.239Z,70.13
2022-09-16T22:38:18.844Z,70.31
2022-09-16T22:42:21.863Z,69.96
2022-09-16T22:46:28.525Z,69.87
2022-09-16T22:50:32.052Z,70.19
2022-09-16T22:54:35.565Z,69.69
2022-09-16T22:58:39.547Z,69.52
2022-09-16T23:02:44.784Z,69.42
2022-09-16T23:06:48.722Z,70.04
2022-09-16T23:10:51.970Z,70.06
2022-09-16T23:14:59.620Z,70.21
2022-09-16T23:19:06.814Z,70.73
2022-09-16T23:23:10.213Z,70.57
2022-09-16T23:27:13.759Z,70.90
2022-09-16T23:31:18.782Z,70.84
2022-09-16T23:35:23.884Z,70.86
2022-09-16T23:39:27.014Z,70.66
2022-09-16T23:43:30.766Z,70.34
2022-09-16T23:47:34.420Z,70.71
2022-09-16T23:51:39.290Z,71.21
2022-09-16T23:55:44.128Z,71.17
2022-09-16T23:59:47.880Z,70.80
